sensor_id;sensor_type;location;lat;lon;timestamp;temperature;humidity
40287;DHT22;25998;46.604;13.610;2023-07-24T00:03:07;19.70;99.90
40287;DHT22;25998;46.604;13.610;2023-07-24T00:06:18;19.50;99.90
40287;DHT22;25998;46.604;13.610;2023-07-24T00:09:29;19.50;99.90
40287;DHT22;25998;46.604;13.610;2023-07-24T00:12:40;19.40;99.90
40287;DHT22;25998;46.604;13.610;2023-07-24T00:15:51;19.20;99.90
40287;DHT22;25998;46.604;13.610;2023-07-24T00:19:02;19.00;99.90
40287;DHT22;25998;46.604;13.610;2023-07-24T00:22:13;19.00;99.90
40287;DHT22;25998;46.604;13.610;2023-07-24T00:25:23;19.00;99.90
40287;DHT22;25998;46.604;13.610;2023-07-24T00:28:34;19.00;99.90
40287;DHT22;25998;46.604;13.610;2023-07-24T00:31:45;19.20;99.90
40287;DHT22;25998;46.604;13.610;2023-07-24T00:34:56;19.20;99.90
40287;DHT22;25998;46.604;13.610;2023-07-24T00:38:06;19.30;99.90
40287;DHT22;25998;46.604;13.610;2023-07-24T00:41:17;19.50;99.90
40287;DHT22;25998;46.604;13.610;2023-07-24T00:44:28;19.50;99.90
40287;DHT22;25998;46.604;13.610;2023-07-24T00:47:39;19.60;99.90
40287;DHT22;25998;46.604;13.610;2023-07-24T00:50:51;19.60;99.90
40287;DHT22;25998;46.604;13.610;2023-07-24T00:54:02;19.60;99.90
40287;DHT22;25998;46.604;13.610;2023-07-24T00:57:14;19.60;99.90
40287;DHT22;25998;46.604;13.610;2023-07-24T01:00:25;19.50;99.90
40287;DHT22;25998;46.604;13.610;2023-07-24T01:03:37;19.60;99.90
40287;DHT22;25998;46.604;13.610;2023-07-24T01:06:49;19.50;99.90
40287;DHT22;25998;46.604;13.610;2023-07-24T01:10:00;19.70;99.90
40287;DHT22;25998;46.604;13.610;2023-07-24T01:13:23;19.40;99.90
40287;DHT22;25998;46.604;13.610;2023-07-24T01:16:37;19.10;99.90
40287;DHT22;25998;46.604;13.610;2023-07-24T01:19:57;18.90;99.90
40287;DHT22;25998;46.604;13.610;2023-07-24T01:26:59;18.60;99.90
40287;DHT22;25998;46.604;13.610;2023-07-24T01:30:10;18.70;99.90
40287;DHT22;25998;46.604;13.610;2023-07-24T01:33:22;18.90;99.90
40287;DHT22;25998;46.604;13.610;2023-07-24T01:36:33;18.80;99.90
40287;DHT22;25998;46.604;13.610;2023-07-24T01:39:45;18.70;99.90
40287;DHT22;25998;46.604;13.610;2023-07-24T01:42:56;18.70;99.90
40287;DHT22;25998;46.604;13.610;2023-07-24T01:46:10;18.60;99.90
40287;DHT22;25998;46.604;13.610;2023-07-24T01:49:20;18.60;99.90
40287;DHT22;25998;46.604;13.610;2023-07-24T01:52:31;18.70;99.90
40287;DHT22;25998;46.604;13.610;2023-07-24T01:55:42;18.70;99.90
40287;DHT22;25998;46.604;13.610;2023-07-24T01:58:53;18.80;99.90
40287;DHT22;25998;46.604;13.610;2023-07-24T02:02:04;18.70;99.90
40287;DHT22;25998;46.604;13.610;2023-07-24T02:05:15;18.70;99.90
40287;DHT22;25998;46.604;13.610;2023-07-24T02:08:26;18.80;99.90
40287;DHT22;25998;46.604;13.610;2023-07-24T02:11:36;18.90;99.90
40287;DHT22;25998;46.604;13.610;2023-07-24T02:14:47;18.90;99.90
40287;DHT22;25998;46.604;13.610;2023-07-24T02:18:02;18.70;99.90
40287;DHT22;25998;46.604;13.610;2023-07-24T02:21:12;18.60;99.90
40287;DHT22;25998;46.604;13.610;2023-07-24T02:24:23;18.70;99.90
40287;DHT22;25998;46.604;13.610;2023-07-24T02:27:34;18.80;99.90
40287;DHT22;25998;46.604;13.610;2023-07-24T02:30:47;18.90;99.90
40287;DHT22;25998;46.604;13.610;2023-07-24T02:33:58;18.80;99.90
40287;DHT22;25998;46.604;13.610;2023-07-24T02:37:09;18.70;99.90
40287;DHT22;25998;46.604;13.610;2023-07-24T02:40:19;18.60;99.90
40287;DHT22;25998;46.604;13.610;2023-07-24T02:43:30;18.70;99.90
40287;DHT22;25998;46.604;13.610;2023-07-24T02:46:41;18.80;99.90
40287;DHT22;25998;46.604;13.610;2023-07-24T02:49:52;18.90;99.90
40287;DHT22;25998;46.604;13.610;2023-07-24T02:53:03;18.80;99.90
40287;DHT22;25998;46.604;13.610;2023-07-24T02:56:14;18.80;99.90
40287;DHT22;25998;46.604;13.610;2023-07-24T02:59:25;18.60;99.90
40287;DHT22;25998;46.604;13.610;2023-07-24T03:02:36;18.40;99.90
40287;DHT22;25998;46.604;13.610;2023-07-24T03:05:47;18.30;99.90
40287;DHT22;25998;46.604;13.610;2023-07-24T03:08:58;18.20;99.90
40287;DHT22;25998;46.604;13.610;2023-07-24T03:12:08;18.40;99.90
40287;DHT22;25998;46.604;13.610;2023-07-24T03:15:20;18.50;99.90
40287;DHT22;25998;46.604;13.610;2023-07-24T03:18:30;18.60;99.90
40287;DHT22;25998;46.604;13.610;2023-07-24T03:21:41;18.70;99.90
40287;DHT22;25998;46.604;13.610;2023-07-24T03:24:52;18.70;99.90
40287;DHT22;25998;46.604;13.610;2023-07-24T03:28:03;18.50;99.90
40287;DHT22;25998;46.604;13.610;2023-07-24T03:31:14;18.50;99.90
40287;DHT22;25998;46.604;13.610;2023-07-24T03:34:25;18.70;99.90
40287;DHT22;25998;46.604;13.610;2023-07-24T03:37:36;18.70;99.90
40287;DHT22;25998;46.604;13.610;2023-07-24T03:40:46;18.50;99.90
40287;DHT22;25998;46.604;13.610;2023-07-24T03:43:58;18.60;99.90
40287;DHT22;25998;46.604;13.610;2023-07-24T03:47:09;18.60;99.90
40287;DHT22;25998;46.604;13.610;2023-07-24T03:50:21;18.40;99.90
40287;DHT22;25998;46.604;13.610;2023-07-24T03:53:32;18.20;99.90
40287;DHT22;25998;46.604;13.610;2023-07-24T03:56:43;18.10;99.90
40287;DHT22;25998;46.604;13.610;2023-07-24T03:59:53;18.10;99.90
40287;DHT22;25998;46.604;13.610;2023-07-24T04:03:04;18.30;99.90
40287;DHT22;25998;46.604;13.610;2023-07-24T04:06:15;18.40;99.90
40287;DHT22;25998;46.604;13.610;2023-07-24T04:09:26;18.40;99.90
40287;DHT22;25998;46.604;13.610;2023-07-24T04:12:37;18.40;99.90
40287;DHT22;25998;46.604;13.610;2023-07-24T04:15:48;18.40;99.90
40287;DHT22;25998;46.604;13.610;2023-07-24T04:18:59;18.40;99.90
40287;DHT22;25998;46.604;13.610;2023-07-24T04:22:10;18.40;99.90
40287;DHT22;25998;46.604;13.610;2023-07-24T04:25:20;18.20;99.90
40287;DHT22;25998;46.604;13.610;2023-07-24T04:28:31;18.10;99.90
40287;DHT22;25998;46.604;13.610;2023-07-24T04:31:42;18.10;99.90
40287;DHT22;25998;46.604;13.610;2023-07-24T04:34:53;18.10;99.90
40287;DHT22;25998;46.604;13.610;2023-07-24T04:38:04;18.40;99.90
40287;DHT22;25998;46.604;13.610;2023-07-24T04:41:14;18.50;99.90
40287;DHT22;25998;46.604;13.610;2023-07-24T04:44:25;18.60;99.90
40287;DHT22;25998;46.604;13.610;2023-07-24T04:47:36;18.70;99.90
40287;DHT22;25998;46.604;13.610;2023-07-24T04:50:55;18.70;99.90
40287;DHT22;25998;46.604;13.610;2023-07-24T04:54:06;18.80;99.90
40287;DHT22;25998;46.604;13.610;2023-07-24T04:57:16;18.70;99.90
40287;DHT22;25998;46.604;13.610;2023-07-24T05:00:27;18.80;99.90
40287;DHT22;25998;46.604;13.610;2023-07-24T05:03:38;18.70;99.90
40287;DHT22;25998;46.604;13.610;2023-07-24T05:06:49;18.70;99.90
40287;DHT22;25998;46.604;13.610;2023-07-24T05:10:00;18.70;99.90
40287;DHT22;25998;46.604;13.610;2023-07-24T05:13:11;18.80;99.90
40287;DHT22;25998;46.604;13.610;2023-07-24T05:16:22;19.10;99.90
40287;DHT22;25998;46.604;13.610;2023-07-24T05:19:32;19.10;99.90
40287;DHT22;25998;46.604;13.610;2023-07-24T05:22:43;19.00;99.90
40287;DHT22;25998;46.604;13.610;2023-07-24T05:26:02;18.90;99.90
40287;DHT22;25998;46.604;13.610;2023-07-24T05:29:13;18.80;99.90
40287;DHT22;25998;46.604;13.610;2023-07-24T05:32:24;18.80;99.90
40287;DHT22;25998;46.604;13.610;2023-07-24T05:35:34;19.00;99.90
40287;DHT22;25998;46.604;13.610;2023-07-24T05:38:45;19.20;99.90
40287;DHT22;25998;46.604;13.610;2023-07-24T05:41:56;19.20;99.90
40287;DHT22;25998;46.604;13.610;2023-07-24T05:45:08;19.30;99.90
40287;DHT22;25998;46.604;13.610;2023-07-24T05:48:20;19.20;99.90
40287;DHT22;25998;46.604;13.610;2023-07-24T05:51:31;19.30;99.90
40287;DHT22;25998;46.604;13.610;2023-07-24T05:54:42;19.50;99.90
40287;DHT22;25998;46.604;13.610;2023-07-24T05:57:52;19.60;99.90
40287;DHT22;25998;46.604;13.610;2023-07-24T06:01:03;20.00;99.90
40287;DHT22;25998;46.604;13.610;2023-07-24T06:04:15;20.40;99.90
40287;DHT22;25998;46.604;13.610;2023-07-24T06:07:26;20.90;99.90
40287;DHT22;25998;46.604;13.610;2023-07-24T06:10:37;21.10;99.90
40287;DHT22;25998;46.604;13.610;2023-07-24T06:13:47;21.20;99.90
40287;DHT22;25998;46.604;13.610;2023-07-24T06:16:58;21.40;99.90
40287;DHT22;25998;46.604;13.610;2023-07-24T06:20:09;21.30;99.90
40287;DHT22;25998;46.604;13.610;2023-07-24T06:23:20;21.40;99.90
40287;DHT22;25998;46.604;13.610;2023-07-24T06:26:31;21.40;99.90
40287;DHT22;25998;46.604;13.610;2023-07-24T06:29:41;21.40;99.90
40287;DHT22;25998;46.604;13.610;2023-07-24T06:32:52;21.40;99.90
40287;DHT22;25998;46.604;13.610;2023-07-24T06:36:03;21.60;99.90
40287;DHT22;25998;46.604;13.610;2023-07-24T06:39:14;21.90;99.90
40287;DHT22;25998;46.604;13.610;2023-07-24T06:42:25;22.50;99.90
40287;DHT22;25998;46.604;13.610;2023-07-24T06:45:36;23.10;99.90
40287;DHT22;25998;46.604;13.610;2023-07-24T06:48:47;23.30;99.90
40287;DHT22;25998;46.604;13.610;2023-07-24T06:51:58;23.50;99.90
40287;DHT22;25998;46.604;13.610;2023-07-24T06:55:08;23.30;99.90
40287;DHT22;25998;46.604;13.610;2023-07-24T06:58:19;23.20;99.90
40287;DHT22;25998;46.604;13.610;2023-07-24T07:01:30;23.50;99.90
40287;DHT22;25998;46.604;13.610;2023-07-24T07:04:41;23.60;99.90
40287;DHT22;25998;46.604;13.610;2023-07-24T07:07:52;23.90;99.90
40287;DHT22;25998;46.604;13.610;2023-07-24T07:11:03;24.00;99.90
40287;DHT22;25998;46.604;13.610;2023-07-24T07:14:13;24.10;99.90
40287;DHT22;25998;46.604;13.610;2023-07-24T07:17:24;24.20;99.90
40287;DHT22;25998;46.604;13.610;2023-07-24T07:20:35;24.20;99.90
40287;DHT22;25998;46.604;13.610;2023-07-24T07:23:46;24.20;99.90
40287;DHT22;25998;46.604;13.610;2023-07-24T07:26:57;24.50;99.90
40287;DHT22;25998;46.604;13.610;2023-07-24T07:30:08;24.80;99.90
40287;DHT22;25998;46.604;13.610;2023-07-24T07:33:19;24.70;99.90
40287;DHT22;25998;46.604;13.610;2023-07-24T07:36:32;24.60;99.90
40287;DHT22;25998;46.604;13.610;2023-07-24T07:39:43;24.90;99.90
40287;DHT22;25998;46.604;13.610;2023-07-24T07:42:54;25.30;99.90
40287;DHT22;25998;46.604;13.610;2023-07-24T07:46:05;25.70;99.90
40287;DHT22;25998;46.604;13.610;2023-07-24T07:49:16;26.20;99.90
40287;DHT22;25998;46.604;13.610;2023-07-24T07:52:26;26.40;99.90
40287;DHT22;25998;46.604;13.610;2023-07-24T07:55:37;26.40;99.90
40287;DHT22;25998;46.604;13.610;2023-07-24T07:58:48;26.30;99.90
40287;DHT22;25998;46.604;13.610;2023-07-24T08:01:59;26.10;99.90
40287;DHT22;25998;46.604;13.610;2023-07-24T08:05:11;25.80;99.90
40287;DHT22;25998;46.604;13.610;2023-07-24T08:08:21;25.80;99.90
40287;DHT22;25998;46.604;13.610;2023-07-24T08:11:32;25.80;99.90
40287;DHT22;25998;46.604;13.610;2023-07-24T08:14:43;26.30;99.90
40287;DHT22;25998;46.604;13.610;2023-07-24T08:17:54;26.70;99.90
40287;DHT22;25998;46.604;13.610;2023-07-24T08:21:04;26.90;99.90
40287;DHT22;25998;46.604;13.610;2023-07-24T08:24:15;27.30;99.90
40287;DHT22;25998;46.604;13.610;2023-07-24T08:27:26;27.70;99.90
40287;DHT22;25998;46.604;13.610;2023-07-24T08:30:37;27.50;99.90
40287;DHT22;25998;46.604;13.610;2023-07-24T08:33:48;27.30;99.90
40287;DHT22;25998;46.604;13.610;2023-07-24T08:36:58;27.00;99.90
40287;DHT22;25998;46.604;13.610;2023-07-24T08:40:10;26.90;99.90
40287;DHT22;25998;46.604;13.610;2023-07-24T08:43:21;27.00;99.90
40287;DHT22;25998;46.604;13.610;2023-07-24T08:46:36;26.90;99.90
40287;DHT22;25998;46.604;13.610;2023-07-24T08:49:49;26.90;99.90
40287;DHT22;25998;46.604;13.610;2023-07-24T08:53:02;27.10;99.90
40287;DHT22;25998;46.604;13.610;2023-07-24T08:56:13;27.20;99.90
40287;DHT22;25998;46.604;13.610;2023-07-24T08:59:24;27.00;99.90
40287;DHT22;25998;46.604;13.610;2023-07-24T09:02:36;26.90;99.90
40287;DHT22;25998;46.604;13.610;2023-07-24T09:05:46;27.00;99.90
40287;DHT22;25998;46.604;13.610;2023-07-24T09:08:57;27.30;99.90
40287;DHT22;25998;46.604;13.610;2023-07-24T09:12:08;27.30;99.70
40287;DHT22;25998;46.604;13.610;2023-07-24T09:15:25;26.80;99.90
40287;DHT22;25998;46.604;13.610;2023-07-24T09:18:40;27.50;99.70
40287;DHT22;25998;46.604;13.610;2023-07-24T09:21:52;28.00;99.10
40287;DHT22;25998;46.604;13.610;2023-07-24T09:25:03;28.30;98.40
40287;DHT22;25998;46.604;13.610;2023-07-24T09:28:15;28.80;97.30
40287;DHT22;25998;46.604;13.610;2023-07-24T09:31:36;29.00;97.40
40287;DHT22;25998;46.604;13.610;2023-07-24T09:34:47;29.10;96.70
40287;DHT22;25998;46.604;13.610;2023-07-24T09:38:03;29.50;97.00
40287;DHT22;25998;46.604;13.610;2023-07-24T09:41:14;29.70;95.80
40287;DHT22;25998;46.604;13.610;2023-07-24T09:44:26;29.80;95.40
40287;DHT22;25998;46.604;13.610;2023-07-24T09:47:39;29.40;95.60
40287;DHT22;25998;46.604;13.610;2023-07-24T09:50:58;29.30;95.20
40287;DHT22;25998;46.604;13.610;2023-07-24T09:54:25;29.40;95.10
40287;DHT22;25998;46.604;13.610;2023-07-24T09:57:39;29.90;95.30
40287;DHT22;25998;46.604;13.610;2023-07-24T10:00:51;29.80;92.20
40287;DHT22;25998;46.604;13.610;2023-07-24T10:04:02;30.00;93.70
40287;DHT22;25998;46.604;13.610;2023-07-24T10:07:14;30.30;92.80
40287;DHT22;25998;46.604;13.610;2023-07-24T10:10:27;30.20;92.40
40287;DHT22;25998;46.604;13.610;2023-07-24T10:13:42;29.70;92.30
40287;DHT22;25998;46.604;13.610;2023-07-24T10:16:55;29.50;94.90
40287;DHT22;25998;46.604;13.610;2023-07-24T10:20:08;28.90;94.60
40287;DHT22;25998;46.604;13.610;2023-07-24T10:23:19;28.60;95.60
40287;DHT22;25998;46.604;13.610;2023-07-24T10:26:30;28.40;96.30
40287;DHT22;25998;46.604;13.610;2023-07-24T10:29:41;28.10;96.90
40287;DHT22;25998;46.604;13.610;2023-07-24T10:32:53;28.00;96.90
40287;DHT22;25998;46.604;13.610;2023-07-24T10:36:09;28.10;97.60
40287;DHT22;25998;46.604;13.610;2023-07-24T10:39:21;27.80;97.60
40287;DHT22;25998;46.604;13.610;2023-07-24T10:42:32;27.80;99.40
40287;DHT22;25998;46.604;13.610;2023-07-24T10:45:51;27.70;99.50
40287;DHT22;25998;46.604;13.610;2023-07-24T10:49:02;27.50;99.10
40287;DHT22;25998;46.604;13.610;2023-07-24T10:52:13;27.30;99.90
40287;DHT22;25998;46.604;13.610;2023-07-24T10:55:23;26.90;99.90
40287;DHT22;25998;46.604;13.610;2023-07-24T10:58:35;26.90;99.90
40287;DHT22;25998;46.604;13.610;2023-07-24T11:01:46;26.80;99.90
40287;DHT22;25998;46.604;13.610;2023-07-24T11:04:59;26.80;99.90
40287;DHT22;25998;46.604;13.610;2023-07-24T11:08:16;26.90;99.90
40287;DHT22;25998;46.604;13.610;2023-07-24T11:11:30;26.80;99.90
40287;DHT22;25998;46.604;13.610;2023-07-24T11:14:51;26.70;99.20
40287;DHT22;25998;46.604;13.610;2023-07-24T11:18:04;26.70;99.90
40287;DHT22;25998;46.604;13.610;2023-07-24T11:21:18;26.50;99.90
40287;DHT22;25998;46.604;13.610;2023-07-24T11:24:29;26.20;99.90
40287;DHT22;25998;46.604;13.610;2023-07-24T11:27:43;25.90;99.00
40287;DHT22;25998;46.604;13.610;2023-07-24T11:30:54;25.60;98.20
40287;DHT22;25998;46.604;13.610;2023-07-24T11:34:05;25.70;96.50
40287;DHT22;25998;46.604;13.610;2023-07-24T11:37:18;25.80;96.10
40287;DHT22;25998;46.604;13.610;2023-07-24T11:40:37;25.80;95.90
40287;DHT22;25998;46.604;13.610;2023-07-24T11:43:50;25.80;96.90
40287;DHT22;25998;46.604;13.610;2023-07-24T11:47:05;25.90;99.90
40287;DHT22;25998;46.604;13.610;2023-07-24T11:50:17;25.60;99.90
40287;DHT22;25998;46.604;13.610;2023-07-24T11:53:31;25.60;98.80
40287;DHT22;25998;46.604;13.610;2023-07-24T11:56:42;25.60;97.20
40287;DHT22;25998;46.604;13.610;2023-07-24T11:59:53;25.60;95.80
40287;DHT22;25998;46.604;13.610;2023-07-24T12:03:04;25.70;97.00
40287;DHT22;25998;46.604;13.610;2023-07-24T12:06:16;25.90;96.40
40287;DHT22;25998;46.604;13.610;2023-07-24T12:09:30;25.90;96.40
40287;DHT22;25998;46.604;13.610;2023-07-24T12:12:46;25.90;96.30
40287;DHT22;25998;46.604;13.610;2023-07-24T12:15:57;25.90;96.30
40287;DHT22;25998;46.604;13.610;2023-07-24T12:19:08;25.80;99.70
40287;DHT22;25998;46.604;13.610;2023-07-24T12:22:18;25.30;99.80
40287;DHT22;25998;46.604;13.610;2023-07-24T12:25:30;25.20;99.90
40287;DHT22;25998;46.604;13.610;2023-07-24T12:28:41;25.10;99.90
40287;DHT22;25998;46.604;13.610;2023-07-24T12:31:52;25.00;99.90
40287;DHT22;25998;46.604;13.610;2023-07-24T12:35:03;24.70;99.90
40287;DHT22;25998;46.604;13.610;2023-07-24T12:38:13;24.60;99.90
40287;DHT22;25998;46.604;13.610;2023-07-24T12:41:24;24.60;99.90
40287;DHT22;25998;46.604;13.610;2023-07-24T12:44:35;24.50;99.90
40287;DHT22;25998;46.604;13.610;2023-07-24T12:47:46;24.60;99.90
40287;DHT22;25998;46.604;13.610;2023-07-24T12:50:57;24.80;99.90
40287;DHT22;25998;46.604;13.610;2023-07-24T12:54:10;24.40;99.90
40287;DHT22;25998;46.604;13.610;2023-07-24T12:57:21;24.40;99.90
40287;DHT22;25998;46.604;13.610;2023-07-24T13:00:32;24.30;99.90
40287;DHT22;25998;46.604;13.610;2023-07-24T13:03:43;24.30;99.90
40287;DHT22;25998;46.604;13.610;2023-07-24T13:06:53;24.30;99.90
40287;DHT22;25998;46.604;13.610;2023-07-24T13:10:05;24.30;99.90
40287;DHT22;25998;46.604;13.610;2023-07-24T13:13:16;24.40;99.90
40287;DHT22;25998;46.604;13.610;2023-07-24T13:16:27;24.50;99.90
40287;DHT22;25998;46.604;13.610;2023-07-24T13:19:38;24.50;99.90
40287;DHT22;25998;46.604;13.610;2023-07-24T13:22:49;24.70;99.90
40287;DHT22;25998;46.604;13.610;2023-07-24T13:25:59;24.70;99.90
40287;DHT22;25998;46.604;13.610;2023-07-24T13:29:10;24.80;99.90
40287;DHT22;25998;46.604;13.610;2023-07-24T13:32:21;25.00;99.90
40287;DHT22;25998;46.604;13.610;2023-07-24T13:35:32;24.90;99.90
40287;DHT22;25998;46.604;13.610;2023-07-24T13:38:43;24.50;99.90
40287;DHT22;25998;46.604;13.610;2023-07-24T13:41:54;24.50;99.90
40287;DHT22;25998;46.604;13.610;2023-07-24T13:45:05;24.50;99.90
40287;DHT22;25998;46.604;13.610;2023-07-24T13:48:16;24.50;99.90
40287;DHT22;25998;46.604;13.610;2023-07-24T13:51:27;24.30;99.90
40287;DHT22;25998;46.604;13.610;2023-07-24T13:54:37;24.30;99.90
40287;DHT22;25998;46.604;13.610;2023-07-24T13:57:48;24.50;99.90
40287;DHT22;25998;46.604;13.610;2023-07-24T14:00:59;24.40;99.90
40287;DHT22;25998;46.604;13.610;2023-07-24T14:04:10;24.40;99.90
40287;DHT22;25998;46.604;13.610;2023-07-24T14:07:22;24.60;99.90
40287;DHT22;25998;46.604;13.610;2023-07-24T14:10:33;24.50;99.90
40287;DHT22;25998;46.604;13.610;2023-07-24T14:13:44;24.40;99.90
40287;DHT22;25998;46.604;13.610;2023-07-24T14:16:57;24.40;99.90
40287;DHT22;25998;46.604;13.610;2023-07-24T14:20:08;24.30;99.90
40287;DHT22;25998;46.604;13.610;2023-07-24T14:23:19;24.20;99.90
40287;DHT22;25998;46.604;13.610;2023-07-24T14:26:30;24.20;99.90
40287;DHT22;25998;46.604;13.610;2023-07-24T14:29:40;23.80;99.90
40287;DHT22;25998;46.604;13.610;2023-07-24T14:32:51;23.80;99.90
40287;DHT22;25998;46.604;13.610;2023-07-24T14:36:02;23.80;99.90
40287;DHT22;25998;46.604;13.610;2023-07-24T14:39:13;23.60;99.90
40287;DHT22;25998;46.604;13.610;2023-07-24T14:42:24;23.40;99.90
40287;DHT22;25998;46.604;13.610;2023-07-24T14:45:35;23.10;99.90
40287;DHT22;25998;46.604;13.610;2023-07-24T14:48:45;23.10;99.90
40287;DHT22;25998;46.604;13.610;2023-07-24T14:51:56;22.70;99.90
40287;DHT22;25998;46.604;13.610;2023-07-24T14:55:07;22.80;99.90
40287;DHT22;25998;46.604;13.610;2023-07-24T14:58:18;22.60;99.90
40287;DHT22;25998;46.604;13.610;2023-07-24T15:01:29;22.40;99.90
40287;DHT22;25998;46.604;13.610;2023-07-24T15:04:40;22.10;99.90
40287;DHT22;25998;46.604;13.610;2023-07-24T15:07:51;22.00;99.90
40287;DHT22;25998;46.604;13.610;2023-07-24T15:11:02;21.70;99.90
40287;DHT22;25998;46.604;13.610;2023-07-24T15:14:13;21.60;99.90
40287;DHT22;25998;46.604;13.610;2023-07-24T15:17:24;21.40;99.90
40287;DHT22;25998;46.604;13.610;2023-07-24T15:20:35;21.30;99.90
40287;DHT22;25998;46.604;13.610;2023-07-24T15:23:46;21.20;99.90
40287;DHT22;25998;46.604;13.610;2023-07-24T15:27:02;21.40;99.90
40287;DHT22;25998;46.604;13.610;2023-07-24T15:30:18;21.40;99.90
40287;DHT22;25998;46.604;13.610;2023-07-24T15:33:29;21.60;99.90
40287;DHT22;25998;46.604;13.610;2023-07-24T15:36:40;21.40;99.90
40287;DHT22;25998;46.604;13.610;2023-07-24T15:39:51;21.30;99.90
40287;DHT22;25998;46.604;13.610;2023-07-24T15:43:01;21.30;99.90
40287;DHT22;25998;46.604;13.610;2023-07-24T15:46:12;21.50;99.90
40287;DHT22;25998;46.604;13.610;2023-07-24T15:49:23;21.70;99.90
40287;DHT22;25998;46.604;13.610;2023-07-24T15:52:34;21.90;99.90
40287;DHT22;25998;46.604;13.610;2023-07-24T15:55:44;21.90;99.90
40287;DHT22;25998;46.604;13.610;2023-07-24T15:58:55;22.00;99.90
40287;DHT22;25998;46.604;13.610;2023-07-24T16:02:06;21.90;99.90
40287;DHT22;25998;46.604;13.610;2023-07-24T16:05:19;22.00;99.90
40287;DHT22;25998;46.604;13.610;2023-07-24T16:08:30;21.80;99.90
40287;DHT22;25998;46.604;13.610;2023-07-24T16:11:40;21.80;99.90
40287;DHT22;25998;46.604;13.610;2023-07-24T16:14:51;22.00;99.90
40287;DHT22;25998;46.604;13.610;2023-07-24T16:18:02;22.20;99.90
40287;DHT22;25998;46.604;13.610;2023-07-24T16:21:13;22.20;99.90
40287;DHT22;25998;46.604;13.610;2023-07-24T16:24:24;22.50;99.90
40287;DHT22;25998;46.604;13.610;2023-07-24T16:27:35;22.40;99.90
40287;DHT22;25998;46.604;13.610;2023-07-24T16:30:45;22.30;99.90
40287;DHT22;25998;46.604;13.610;2023-07-24T16:33:56;22.20;99.90
40287;DHT22;25998;46.604;13.610;2023-07-24T16:37:07;22.20;99.90
40287;DHT22;25998;46.604;13.610;2023-07-24T16:40:18;22.20;99.90
40287;DHT22;25998;46.604;13.610;2023-07-24T16:43:29;22.20;99.90
40287;DHT22;25998;46.604;13.610;2023-07-24T16:46:39;21.90;99.90
40287;DHT22;25998;46.604;13.610;2023-07-24T16:49:50;21.70;99.90
40287;DHT22;25998;46.604;13.610;2023-07-24T16:53:01;21.80;99.90
40287;DHT22;25998;46.604;13.610;2023-07-24T16:56:12;21.80;99.90
40287;DHT22;25998;46.604;13.610;2023-07-24T16:59:23;22.00;99.90
40287;DHT22;25998;46.604;13.610;2023-07-24T17:02:33;21.90;99.90
40287;DHT22;25998;46.604;13.610;2023-07-24T17:05:47;21.70;99.90
40287;DHT22;25998;46.604;13.610;2023-07-24T17:08:58;21.60;99.90
40287;DHT22;25998;46.604;13.610;2023-07-24T17:12:09;21.60;99.90
40287;DHT22;25998;46.604;13.610;2023-07-24T17:15:20;21.70;99.90
40287;DHT22;25998;46.604;13.610;2023-07-24T17:18:31;21.60;99.90
40287;DHT22;25998;46.604;13.610;2023-07-24T17:21:41;21.40;99.90
40287;DHT22;25998;46.604;13.610;2023-07-24T17:24:52;21.30;99.90
40287;DHT22;25998;46.604;13.610;2023-07-24T17:28:03;21.10;99.90
40287;DHT22;25998;46.604;13.610;2023-07-24T17:31:14;21.20;99.90
40287;DHT22;25998;46.604;13.610;2023-07-24T17:34:25;21.10;99.90
40287;DHT22;25998;46.604;13.610;2023-07-24T17:37:36;21.20;99.90
40287;DHT22;25998;46.604;13.610;2023-07-24T17:40:47;21.20;99.90
40287;DHT22;25998;46.604;13.610;2023-07-24T17:43:58;21.20;99.90
40287;DHT22;25998;46.604;13.610;2023-07-24T17:47:09;21.20;99.90
40287;DHT22;25998;46.604;13.610;2023-07-24T17:50:20;21.20;99.90
40287;DHT22;25998;46.604;13.610;2023-07-24T17:53:32;21.00;99.90
40287;DHT22;25998;46.604;13.610;2023-07-24T17:56:42;21.00;99.90
40287;DHT22;25998;46.604;13.610;2023-07-24T17:59:53;21.10;99.90
40287;DHT22;25998;46.604;13.610;2023-07-24T18:03:04;21.10;99.90
40287;DHT22;25998;46.604;13.610;2023-07-24T18:06:15;20.70;99.90
40287;DHT22;25998;46.604;13.610;2023-07-24T18:09:26;20.80;99.90
40287;DHT22;25998;46.604;13.610;2023-07-24T18:12:37;20.60;99.90
40287;DHT22;25998;46.604;13.610;2023-07-24T18:15:48;20.50;99.90
40287;DHT22;25998;46.604;13.610;2023-07-24T18:18:59;20.70;99.90
40287;DHT22;25998;46.604;13.610;2023-07-24T18:22:10;20.50;99.90
40287;DHT22;25998;46.604;13.610;2023-07-24T18:25:22;20.30;99.90
40287;DHT22;25998;46.604;13.610;2023-07-24T18:28:33;20.30;99.90
40287;DHT22;25998;46.604;13.610;2023-07-24T18:31:44;20.50;99.90
40287;DHT22;25998;46.604;13.610;2023-07-24T18:34:54;20.50;99.90
40287;DHT22;25998;46.604;13.610;2023-07-24T18:38:05;20.60;99.90
40287;DHT22;25998;46.604;13.610;2023-07-24T18:41:16;20.60;99.90
40287;DHT22;25998;46.604;13.610;2023-07-24T18:44:27;20.40;99.90
40287;DHT22;25998;46.604;13.610;2023-07-24T18:47:38;20.30;99.90
40287;DHT22;25998;46.604;13.610;2023-07-24T18:50:49;20.30;99.90
40287;DHT22;25998;46.604;13.610;2023-07-24T18:54:00;20.40;99.90
40287;DHT22;25998;46.604;13.610;2023-07-24T18:57:11;20.10;99.90
40287;DHT22;25998;46.604;13.610;2023-07-24T19:00:22;20.00;99.90
40287;DHT22;25998;46.604;13.610;2023-07-24T19:03:33;20.20;99.90
40287;DHT22;25998;46.604;13.610;2023-07-24T19:06:43;20.10;99.90
40287;DHT22;25998;46.604;13.610;2023-07-24T19:10:20;19.90;99.90
40287;DHT22;25998;46.604;13.610;2023-07-24T19:13:57;19.90;99.90
40287;DHT22;25998;46.604;13.610;2023-07-24T19:17:08;19.90;99.90
40287;DHT22;25998;46.604;13.610;2023-07-24T19:20:19;19.80;99.90
40287;DHT22;25998;46.604;13.610;2023-07-24T19:23:30;19.80;99.90
40287;DHT22;25998;46.604;13.610;2023-07-24T19:26:41;19.80;99.90
40287;DHT22;25998;46.604;13.610;2023-07-24T19:29:51;19.80;99.90
40287;DHT22;25998;46.604;13.610;2023-07-24T19:33:02;19.70;99.90
40287;DHT22;25998;46.604;13.610;2023-07-24T19:36:13;19.50;99.90
40287;DHT22;25998;46.604;13.610;2023-07-24T19:39:24;19.50;99.90
40287;DHT22;25998;46.604;13.610;2023-07-24T19:42:35;19.60;99.90
40287;DHT22;25998;46.604;13.610;2023-07-24T19:45:45;19.70;99.90
40287;DHT22;25998;46.604;13.610;2023-07-24T19:48:56;19.60;99.90
40287;DHT22;25998;46.604;13.610;2023-07-24T19:52:07;19.70;99.90
40287;DHT22;25998;46.604;13.610;2023-07-24T19:55:18;19.80;99.90